UAL1955 KIAH-KOKC
Flight info
| Callsign | UAL1955 |
|---|---|
| Flight time | N/A |
| Altitude | 36000 |
| Route | STYCK8 DOLEY ZEMMA TSDEL3 |
| Aircraft | A319/M-SDE3FGHIRWY/LB1 |
Departure
| Time | 2026-05-01 15:13 |
|---|---|
| Airport | George Bush Intercontinental Airport (KIAH) |
Arrival
| Time | N/A |
|---|---|
| Airport | OKC Will Rogers World Airport (KOKC) |
| Time | Latitude | Longitude | Altitude | Speed | Heading |
|---|---|---|---|---|---|
| 2026-05-01 14:52 | 29.98940 | -95.34195 | 107 ft | 0 kts | 118° |
| 2026-05-01 15:03 | 29.98944 | -95.34203 | 107 ft | 4 kts | 114° |
| 2026-05-01 15:03 | 29.98950 | -95.34232 | 105 ft | 4 kts | 81° |
| 2026-05-01 15:04 | 29.98940 | -95.34256 | 105 ft | 4 kts | 28° |
| 2026-05-01 15:04 | 29.98918 | -95.34261 | 106 ft | 4 kts | 0° |
| 2026-05-01 15:04 | 29.98913 | -95.34261 | 105 ft | 0 kts | 0° |
| 2026-05-01 15:09 | 29.98927 | -95.34261 | 107 ft | 4 kts | 0° |
| 2026-05-01 15:09 | 29.98974 | -95.34260 | 107 ft | 9 kts | 0° |
| 2026-05-01 15:09 | 29.99024 | -95.34260 | 107 ft | 13 kts | 360° |
| 2026-05-01 15:10 | 29.99121 | -95.34334 | 107 ft | 14 kts | 337° |
| 2026-05-01 15:10 | 29.99177 | -95.34531 | 107 ft | 20 kts | 270° |
| 2026-05-01 15:10 | 29.99177 | -95.34772 | 107 ft | 25 kts | 270° |
| 2026-05-01 15:11 | 29.99177 | -95.34979 | 107 ft | 23 kts | 270° |
| 2026-05-01 15:11 | 29.99176 | -95.35300 | 107 ft | 24 kts | 268° |
| 2026-05-01 15:11 | 29.99178 | -95.35449 | 107 ft | 16 kts | 282° |
| 2026-05-01 15:12 | 29.99279 | -95.35489 | 107 ft | 16 kts | 3° |
| 2026-05-01 15:12 | 29.99342 | -95.35337 | 107 ft | 15 kts | 89° |
| 2026-05-01 15:12 | 29.99343 | -95.34772 | 107 ft | 94 kts | 90° |
| 2026-05-01 15:13 | 29.99366 | -95.32017 | 1361 ft | 126 kts | 82° |
| 2026-05-01 15:14 | 30.00584 | -95.30857 | 2175 ft | 158 kts | 355° |
| 2026-05-01 15:14 | 30.01676 | -95.31457 | 2431 ft | 190 kts | 333° |
| 2026-05-01 15:14 | 30.04177 | -95.33404 | 3279 ft | 241 kts | 328° |
| 2026-05-01 15:15 | 30.07177 | -95.35593 | 4899 ft | 265 kts | 330° |
| 2026-05-01 15:15 | 30.10352 | -95.37899 | 6720 ft | 279 kts | 329° |
| 2026-05-01 15:16 | 30.13714 | -95.40352 | 8438 ft | 292 kts | 326° |
| 2026-05-01 15:16 | 30.17203 | -95.42912 | 10192 ft | 304 kts | 324° |
| 2026-05-01 15:17 | 30.21026 | -95.45730 | 11037 ft | 341 kts | 324° |
| 2026-05-01 15:18 | 30.27069 | -95.50160 | 13430 ft | 348 kts | 323° |
| 2026-05-01 15:18 | 30.29240 | -95.51466 | 14121 ft | 356 kts | 330° |
| 2026-05-01 15:19 | 30.36021 | -95.55285 | 16096 ft | 364 kts | 328° |
| 2026-05-01 15:19 | 30.40594 | -95.57877 | 17489 ft | 368 kts | 327° |
| 2026-05-01 15:19 | 30.42863 | -95.59162 | 18174 ft | 369 kts | 327° |
| 2026-05-01 15:20 | 30.47505 | -95.61787 | 19341 ft | 374 kts | 327° |
| 2026-05-01 15:20 | 30.49852 | -95.63114 | 19915 ft | 376 kts | 327° |
| 2026-05-01 15:20 | 30.52206 | -95.64447 | 20451 ft | 379 kts | 327° |
| 2026-05-01 15:21 | 30.54583 | -95.65792 | 21008 ft | 382 kts | 327° |
| 2026-05-01 15:21 | 30.56993 | -95.67113 | 21551 ft | 386 kts | 328° |
| 2026-05-01 15:21 | 30.59440 | -95.68420 | 22093 ft | 389 kts | 328° |
| 2026-05-01 15:21 | 30.61880 | -95.69704 | 22662 ft | 392 kts | 328° |
| 2026-05-01 15:22 | 30.66881 | -95.72327 | 23700 ft | 397 kts | 328° |
| 2026-05-01 15:22 | 30.69395 | -95.73661 | 24118 ft | 399 kts | 328° |
| 2026-05-01 15:22 | 30.71925 | -95.75017 | 24533 ft | 402 kts | 328° |
| 2026-05-01 15:23 | 30.74476 | -95.76389 | 24950 ft | 404 kts | 327° |
| 2026-05-01 15:23 | 30.77030 | -95.77766 | 25363 ft | 407 kts | 327° |
| 2026-05-01 15:23 | 30.79611 | -95.79156 | 25765 ft | 410 kts | 327° |
| 2026-05-01 15:23 | 30.82206 | -95.80550 | 26201 ft | 413 kts | 327° |
| 2026-05-01 15:24 | 30.84818 | -95.81951 | 26707 ft | 414 kts | 327° |
| 2026-05-01 15:24 | 30.87407 | -95.83340 | 27158 ft | 416 kts | 327° |
| 2026-05-01 15:24 | 30.90042 | -95.84758 | 27587 ft | 419 kts | 326° |
| 2026-05-01 15:24 | 30.92694 | -95.86185 | 28010 ft | 422 kts | 326° |
| 2026-05-01 15:25 | 30.95366 | -95.87619 | 28436 ft | 425 kts | 326° |
| 2026-05-01 15:25 | 30.98071 | -95.89070 | 28843 ft | 428 kts | 326° |
| 2026-05-01 15:25 | 31.00786 | -95.90530 | 29251 ft | 431 kts | 326° |
| 2026-05-01 15:25 | 31.03521 | -95.92002 | 29657 ft | 434 kts | 326° |
| 2026-05-01 15:26 | 31.06272 | -95.93487 | 30050 ft | 438 kts | 326° |
| 2026-05-01 15:26 | 31.09005 | -95.94967 | 30374 ft | 441 kts | 326° |
| 2026-05-01 15:26 | 31.11796 | -95.96471 | 30726 ft | 444 kts | 327° |
| 2026-05-01 15:26 | 31.14732 | -95.97717 | 31053 ft | 453 kts | 333° |
| 2026-05-01 15:27 | 31.17741 | -95.98872 | 31394 ft | 456 kts | 333° |
| 2026-05-01 15:27 | 31.20756 | -96.00031 | 31711 ft | 458 kts | 333° |
| 2026-05-01 15:27 | 31.23792 | -96.01201 | 32028 ft | 460 kts | 333° |
| 2026-05-01 15:28 | 31.29879 | -96.03558 | 32812 ft | 461 kts | 333° |
| 2026-05-01 15:28 | 31.32881 | -96.04723 | 33249 ft | 460 kts | 333° |
| 2026-05-01 15:28 | 31.35913 | -96.05901 | 33705 ft | 459 kts | 333° |
| 2026-05-01 15:29 | 31.41970 | -96.08258 | 34544 ft | 458 kts | 333° |
| 2026-05-01 15:29 | 31.44994 | -96.09435 | 34934 ft | 458 kts | 333° |
| 2026-05-01 15:29 | 31.51044 | -96.11791 | 35700 ft | 457 kts | 333° |
| 2026-05-01 15:30 | 31.56048 | -96.13742 | 36001 ft | 453 kts | 332° |
| 2026-05-01 15:31 | 31.74929 | -96.21151 | 36053 ft | 465 kts | 333° |
| 2026-05-01 15:32 | 31.87201 | -96.25951 | 36085 ft | 467 kts | 333° |
| 2026-05-01 15:34 | 32.05775 | -96.33283 | 36093 ft | 472 kts | 333° |